sensor_id;sensor_type;location;lat;lon;timestamp;P1;durP1;ratioP1;P2;durP2;ratioP2
26574;SDS011;67165;50.256;10.978;2023-05-17T00:00:49;4.93;;;1.80;;
26574;SDS011;67165;50.256;10.978;2023-05-17T00:03:15;4.55;;;1.77;;
26574;SDS011;67165;50.256;10.978;2023-05-17T00:05:40;7.72;;;1.50;;
26574;SDS011;67165;50.256;10.978;2023-05-17T00:08:06;4.78;;;1.60;;
26574;SDS011;67165;50.256;10.978;2023-05-17T00:10:32;5.22;;;1.50;;
26574;SDS011;67165;50.256;10.978;2023-05-17T00:12:57;5.45;;;1.75;;
26574;SDS011;67165;50.256;10.978;2023-05-17T00:15:23;6.10;;;1.65;;
26574;SDS011;67165;50.256;10.978;2023-05-17T00:17:48;6.28;;;1.58;;
26574;SDS011;67165;50.256;10.978;2023-05-17T00:20:14;7.43;;;1.60;;
26574;SDS011;67165;50.256;10.978;2023-05-17T00:22:40;6.18;;;1.67;;
26574;SDS011;67165;50.256;10.978;2023-05-17T00:25:07;4.30;;;1.65;;
26574;SDS011;67165;50.256;10.978;2023-05-17T00:27:33;5.68;;;1.35;;
26574;SDS011;67165;50.256;10.978;2023-05-17T00:29:58;14.27;;;1.73;;
26574;SDS011;67165;50.256;10.978;2023-05-17T00:32:24;5.90;;;1.60;;
26574;SDS011;67165;50.256;10.978;2023-05-17T00:34:50;5.18;;;1.85;;
26574;SDS011;67165;50.256;10.978;2023-05-17T00:37:15;5.53;;;1.58;;
26574;SDS011;67165;50.256;10.978;2023-05-17T00:39:41;7.72;;;1.92;;
26574;SDS011;67165;50.256;10.978;2023-05-17T00:42:07;5.47;;;1.52;;
26574;SDS011;67165;50.256;10.978;2023-05-17T00:44:33;8.20;;;1.65;;
26574;SDS011;67165;50.256;10.978;2023-05-17T00:46:58;8.05;;;1.60;;
26574;SDS011;67165;50.256;10.978;2023-05-17T00:49:27;7.75;;;1.63;;
26574;SDS011;67165;50.256;10.978;2023-05-17T00:51:53;6.00;;;1.70;;
26574;SDS011;67165;50.256;10.978;2023-05-17T00:54:20;4.13;;;1.42;;
26574;SDS011;67165;50.256;10.978;2023-05-17T00:56:46;5.85;;;1.67;;
26574;SDS011;67165;50.256;10.978;2023-05-17T00:59:13;8.43;;;2.10;;
26574;SDS011;67165;50.256;10.978;2023-05-17T01:01:42;9.38;;;1.70;;
26574;SDS011;67165;50.256;10.978;2023-05-17T01:04:08;7.38;;;2.00;;
26574;SDS011;67165;50.256;10.978;2023-05-17T01:06:35;6.53;;;2.05;;
26574;SDS011;67165;50.256;10.978;2023-05-17T01:09:01;5.22;;;1.90;;
26574;SDS011;67165;50.256;10.978;2023-05-17T01:17:02;7.07;;;2.00;;
26574;SDS011;67165;50.256;10.978;2023-05-17T01:28:08;6.53;;;2.20;;
26574;SDS011;67165;50.256;10.978;2023-05-17T01:30:35;8.00;;;2.42;;
26574;SDS011;67165;50.256;10.978;2023-05-17T01:33:02;9.05;;;2.20;;
26574;SDS011;67165;50.256;10.978;2023-05-17T01:35:28;7.85;;;1.90;;
26574;SDS011;67165;50.256;10.978;2023-05-17T01:37:57;10.07;;;2.05;;
26574;SDS011;67165;50.256;10.978;2023-05-17T01:40:23;7.40;;;1.80;;
26574;SDS011;67165;50.256;10.978;2023-05-17T01:42:55;6.55;;;1.95;;
26574;SDS011;67165;50.256;10.978;2023-05-17T01:45:29;7.70;;;2.17;;
26574;SDS011;67165;50.256;10.978;2023-05-17T01:50:39;6.38;;;2.10;;
26574;SDS011;67165;50.256;10.978;2023-05-17T01:53:10;8.68;;;1.95;;
26574;SDS011;67165;50.256;10.978;2023-05-17T01:58:14;5.85;;;1.92;;
26574;SDS011;67165;50.256;10.978;2023-05-17T02:00:42;8.10;;;2.08;;
26574;SDS011;67165;50.256;10.978;2023-05-17T02:03:17;7.15;;;2.05;;
26574;SDS011;67165;50.256;10.978;2023-05-17T02:05:43;5.22;;;1.90;;
26574;SDS011;67165;50.256;10.978;2023-05-17T02:08:09;5.45;;;1.85;;
26574;SDS011;67165;50.256;10.978;2023-05-17T02:10:35;4.53;;;1.92;;
26574;SDS011;67165;50.256;10.978;2023-05-17T02:13:01;6.13;;;2.03;;
26574;SDS011;67165;50.256;10.978;2023-05-17T02:15:26;7.93;;;2.40;;
26574;SDS011;67165;50.256;10.978;2023-05-17T02:17:53;7.40;;;1.85;;
26574;SDS011;67165;50.256;10.978;2023-05-17T02:20:19;5.43;;;2.17;;
26574;SDS011;67165;50.256;10.978;2023-05-17T02:22:45;7.20;;;2.20;;
26574;SDS011;67165;50.256;10.978;2023-05-17T02:25:11;8.50;;;2.22;;
26574;SDS011;67165;50.256;10.978;2023-05-17T02:27:36;5.05;;;1.98;;
26574;SDS011;67165;50.256;10.978;2023-05-17T02:30:02;4.68;;;1.88;;
26574;SDS011;67165;50.256;10.978;2023-05-17T02:32:28;6.95;;;2.10;;
26574;SDS011;67165;50.256;10.978;2023-05-17T02:34:55;10.40;;;2.38;;
26574;SDS011;67165;50.256;10.978;2023-05-17T02:37:20;10.20;;;2.42;;
26574;SDS011;67165;50.256;10.978;2023-05-17T02:39:46;4.63;;;1.80;;
26574;SDS011;67165;50.256;10.978;2023-05-17T02:42:12;6.18;;;1.90;;
26574;SDS011;67165;50.256;10.978;2023-05-17T02:44:38;7.63;;;2.20;;
26574;SDS011;67165;50.256;10.978;2023-05-17T02:47:03;7.28;;;2.10;;
26574;SDS011;67165;50.256;10.978;2023-05-17T02:49:29;8.65;;;2.53;;
26574;SDS011;67165;50.256;10.978;2023-05-17T02:51:55;8.02;;;2.20;;
26574;SDS011;67165;50.256;10.978;2023-05-17T02:54:21;6.60;;;2.28;;
26574;SDS011;67165;50.256;10.978;2023-05-17T02:56:46;6.75;;;2.58;;
26574;SDS011;67165;50.256;10.978;2023-05-17T02:59:12;7.60;;;2.45;;
26574;SDS011;67165;50.256;10.978;2023-05-17T03:01:38;5.40;;;2.30;;
26574;SDS011;67165;50.256;10.978;2023-05-17T03:04:03;6.45;;;2.50;;
26574;SDS011;67165;50.256;10.978;2023-05-17T03:06:29;6.40;;;2.20;;
26574;SDS011;67165;50.256;10.978;2023-05-17T03:08:55;8.65;;;2.88;;
26574;SDS011;67165;50.256;10.978;2023-05-17T03:11:21;6.97;;;2.60;;
26574;SDS011;67165;50.256;10.978;2023-05-17T03:13:46;6.43;;;2.13;;
26574;SDS011;67165;50.256;10.978;2023-05-17T03:16:15;9.02;;;2.50;;
26574;SDS011;67165;50.256;10.978;2023-05-17T03:18:41;8.65;;;2.45;;
26574;SDS011;67165;50.256;10.978;2023-05-17T03:21:07;10.13;;;2.78;;
26574;SDS011;67165;50.256;10.978;2023-05-17T03:23:33;8.02;;;2.63;;
26574;SDS011;67165;50.256;10.978;2023-05-17T03:25:58;9.07;;;2.60;;
26574;SDS011;67165;50.256;10.978;2023-05-17T03:28:24;9.77;;;2.65;;
26574;SDS011;67165;50.256;10.978;2023-05-17T03:30:50;9.85;;;3.25;;
26574;SDS011;67165;50.256;10.978;2023-05-17T03:33:17;11.95;;;2.97;;
26574;SDS011;67165;50.256;10.978;2023-05-17T03:35:42;7.28;;;2.88;;
26574;SDS011;67165;50.256;10.978;2023-05-17T03:38:10;10.23;;;3.00;;
26574;SDS011;67165;50.256;10.978;2023-05-17T03:40:36;12.27;;;3.03;;
26574;SDS011;67165;50.256;10.978;2023-05-17T03:43:01;10.75;;;3.13;;
26574;SDS011;67165;50.256;10.978;2023-05-17T03:45:27;6.97;;;3.10;;
26574;SDS011;67165;50.256;10.978;2023-05-17T03:47:53;13.77;;;3.17;;
26574;SDS011;67165;50.256;10.978;2023-05-17T03:50:18;8.65;;;3.05;;
26574;SDS011;67165;50.256;10.978;2023-05-17T03:52:44;15.68;;;3.42;;
26574;SDS011;67165;50.256;10.978;2023-05-17T03:55:10;11.60;;;3.15;;
26574;SDS011;67165;50.256;10.978;2023-05-17T03:57:36;11.43;;;3.15;;
26574;SDS011;67165;50.256;10.978;2023-05-17T04:00:02;15.90;;;3.50;;
26574;SDS011;67165;50.256;10.978;2023-05-17T04:02:31;10.77;;;3.35;;
26574;SDS011;67165;50.256;10.978;2023-05-17T04:05:00;9.05;;;3.15;;
26574;SDS011;67165;50.256;10.978;2023-05-17T04:07:25;10.43;;;3.28;;
26574;SDS011;67165;50.256;10.978;2023-05-17T04:09:51;7.50;;;3.38;;
26574;SDS011;67165;50.256;10.978;2023-05-17T04:12:17;7.20;;;2.97;;
26574;SDS011;67165;50.256;10.978;2023-05-17T04:14:42;10.25;;;3.08;;
26574;SDS011;67165;50.256;10.978;2023-05-17T04:17:08;13.27;;;3.63;;
26574;SDS011;67165;50.256;10.978;2023-05-17T04:19:34;9.25;;;3.25;;
26574;SDS011;67165;50.256;10.978;2023-05-17T04:22:00;5.95;;;2.85;;
26574;SDS011;67165;50.256;10.978;2023-05-17T04:24:25;19.27;;;3.88;;
26574;SDS011;67165;50.256;10.978;2023-05-17T04:26:51;10.07;;;2.95;;
26574;SDS011;67165;50.256;10.978;2023-05-17T04:29:17;10.65;;;3.30;;
26574;SDS011;67165;50.256;10.978;2023-05-17T04:31:42;12.75;;;3.33;;
26574;SDS011;67165;50.256;10.978;2023-05-17T04:34:08;10.57;;;3.33;;
26574;SDS011;67165;50.256;10.978;2023-05-17T04:36:34;10.20;;;3.33;;
26574;SDS011;67165;50.256;10.978;2023-05-17T04:38:59;7.13;;;3.05;;
26574;SDS011;67165;50.256;10.978;2023-05-17T04:41:25;8.60;;;3.30;;
26574;SDS011;67165;50.256;10.978;2023-05-17T04:43:51;9.27;;;3.17;;
26574;SDS011;67165;50.256;10.978;2023-05-17T04:46:16;9.43;;;2.90;;
26574;SDS011;67165;50.256;10.978;2023-05-17T04:48:42;8.60;;;2.50;;
26574;SDS011;67165;50.256;10.978;2023-05-17T04:51:08;11.50;;;3.22;;
26574;SDS011;67165;50.256;10.978;2023-05-17T04:53:33;9.88;;;3.03;;
26574;SDS011;67165;50.256;10.978;2023-05-17T04:55:59;6.70;;;2.72;;
26574;SDS011;67165;50.256;10.978;2023-05-17T04:58:25;7.80;;;3.25;;
26574;SDS011;67165;50.256;10.978;2023-05-17T05:00:51;9.10;;;3.25;;
26574;SDS011;67165;50.256;10.978;2023-05-17T05:03:17;7.72;;;3.05;;
26574;SDS011;67165;50.256;10.978;2023-05-17T05:05:43;7.82;;;2.80;;
26574;SDS011;67165;50.256;10.978;2023-05-17T05:08:08;7.60;;;3.10;;
26574;SDS011;67165;50.256;10.978;2023-05-17T05:10:34;9.20;;;3.17;;
26574;SDS011;67165;50.256;10.978;2023-05-17T05:13:00;11.02;;;3.00;;
26574;SDS011;67165;50.256;10.978;2023-05-17T05:15:26;8.32;;;3.05;;
26574;SDS011;67165;50.256;10.978;2023-05-17T05:17:51;6.78;;;2.95;;
26574;SDS011;67165;50.256;10.978;2023-05-17T05:20:17;7.35;;;3.05;;
26574;SDS011;67165;50.256;10.978;2023-05-17T05:22:43;7.93;;;2.88;;
26574;SDS011;67165;50.256;10.978;2023-05-17T05:25:08;9.60;;;3.30;;
26574;SDS011;67165;50.256;10.978;2023-05-17T05:27:34;9.63;;;3.53;;
26574;SDS011;67165;50.256;10.978;2023-05-17T05:30:01;9.25;;;3.47;;
26574;SDS011;67165;50.256;10.978;2023-05-17T05:32:27;8.15;;;3.17;;
26574;SDS011;67165;50.256;10.978;2023-05-17T05:34:52;8.60;;;3.35;;
26574;SDS011;67165;50.256;10.978;2023-05-17T05:37:18;8.35;;;3.60;;
26574;SDS011;67165;50.256;10.978;2023-05-17T05:39:44;8.63;;;3.50;;
26574;SDS011;67165;50.256;10.978;2023-05-17T05:42:10;9.27;;;3.67;;
26574;SDS011;67165;50.256;10.978;2023-05-17T05:44:37;9.13;;;3.25;;
26574;SDS011;67165;50.256;10.978;2023-05-17T05:47:03;12.95;;;3.80;;
26574;SDS011;67165;50.256;10.978;2023-05-17T05:49:29;11.43;;;3.35;;
26574;SDS011;67165;50.256;10.978;2023-05-17T05:51:54;8.38;;;3.58;;
26574;SDS011;67165;50.256;10.978;2023-05-17T05:54:20;7.35;;;3.00;;
26574;SDS011;67165;50.256;10.978;2023-05-17T05:56:46;10.90;;;3.78;;
26574;SDS011;67165;50.256;10.978;2023-05-17T05:59:11;10.77;;;3.55;;
26574;SDS011;67165;50.256;10.978;2023-05-17T06:01:37;11.95;;;3.38;;
26574;SDS011;67165;50.256;10.978;2023-05-17T06:04:03;10.48;;;3.63;;
26574;SDS011;67165;50.256;10.978;2023-05-17T06:06:28;7.80;;;3.20;;
26574;SDS011;67165;50.256;10.978;2023-05-17T06:08:55;11.27;;;3.45;;
26574;SDS011;67165;50.256;10.978;2023-05-17T06:11:21;10.63;;;3.33;;
26574;SDS011;67165;50.256;10.978;2023-05-17T06:13:48;7.80;;;3.15;;
26574;SDS011;67165;50.256;10.978;2023-05-17T06:16:14;16.15;;;4.10;;
26574;SDS011;67165;50.256;10.978;2023-05-17T06:18:39;10.13;;;3.35;;
26574;SDS011;67165;50.256;10.978;2023-05-17T06:21:05;7.63;;;3.00;;
26574;SDS011;67165;50.256;10.978;2023-05-17T06:23:31;9.25;;;3.45;;
26574;SDS011;67165;50.256;10.978;2023-05-17T06:25:56;7.28;;;3.10;;
26574;SDS011;67165;50.256;10.978;2023-05-17T06:28:22;9.85;;;3.40;;
26574;SDS011;67165;50.256;10.978;2023-05-17T06:30:48;9.27;;;3.53;;
26574;SDS011;67165;50.256;10.978;2023-05-17T06:33:13;11.93;;;3.38;;
26574;SDS011;67165;50.256;10.978;2023-05-17T06:35:39;6.40;;;2.83;;
26574;SDS011;67165;50.256;10.978;2023-05-17T06:38:05;8.93;;;3.40;;
26574;SDS011;67165;50.256;10.978;2023-05-17T06:40:30;8.30;;;3.63;;
26574;SDS011;67165;50.256;10.978;2023-05-17T06:42:56;10.73;;;3.53;;
26574;SDS011;67165;50.256;10.978;2023-05-17T06:45:24;14.75;;;3.80;;
26574;SDS011;67165;50.256;10.978;2023-05-17T06:47:51;15.75;;;3.67;;
26574;SDS011;67165;50.256;10.978;2023-05-17T06:50:17;9.00;;;3.38;;
26574;SDS011;67165;50.256;10.978;2023-05-17T06:52:43;6.53;;;3.13;;
26574;SDS011;67165;50.256;10.978;2023-05-17T06:55:08;7.30;;;3.05;;
26574;SDS011;67165;50.256;10.978;2023-05-17T06:57:34;9.98;;;3.28;;
26574;SDS011;67165;50.256;10.978;2023-05-17T07:00:00;7.47;;;3.20;;
26574;SDS011;67165;50.256;10.978;2023-05-17T07:02:26;8.65;;;3.25;;
26574;SDS011;67165;50.256;10.978;2023-05-17T07:04:55;12.32;;;3.40;;
26574;SDS011;67165;50.256;10.978;2023-05-17T07:07:23;7.40;;;3.10;;
26574;SDS011;67165;50.256;10.978;2023-05-17T07:09:49;7.15;;;3.28;;
26574;SDS011;67165;50.256;10.978;2023-05-17T07:12:14;8.15;;;3.10;;
26574;SDS011;67165;50.256;10.978;2023-05-17T07:14:40;11.23;;;3.00;;
26574;SDS011;67165;50.256;10.978;2023-05-17T07:17:06;7.45;;;3.20;;
26574;SDS011;67165;50.256;10.978;2023-05-17T07:19:31;11.82;;;3.22;;
26574;SDS011;67165;50.256;10.978;2023-05-17T07:21:57;8.75;;;3.10;;
26574;SDS011;67165;50.256;10.978;2023-05-17T07:24:23;6.65;;;3.08;;
26574;SDS011;67165;50.256;10.978;2023-05-17T07:26:48;10.43;;;3.22;;
26574;SDS011;67165;50.256;10.978;2023-05-17T07:29:14;10.27;;;3.15;;
26574;SDS011;67165;50.256;10.978;2023-05-17T07:31:40;9.50;;;3.97;;
26574;SDS011;67165;50.256;10.978;2023-05-17T07:34:05;8.13;;;3.58;;
26574;SDS011;67165;50.256;10.978;2023-05-17T07:36:31;6.60;;;3.10;;
26574;SDS011;67165;50.256;10.978;2023-05-17T07:38:56;10.30;;;3.58;;
26574;SDS011;67165;50.256;10.978;2023-05-17T07:41:25;7.95;;;3.40;;
26574;SDS011;67165;50.256;10.978;2023-05-17T07:43:51;7.45;;;3.20;;
26574;SDS011;67165;50.256;10.978;2023-05-17T07:46:16;8.32;;;3.30;;
26574;SDS011;67165;50.256;10.978;2023-05-17T07:48:42;8.32;;;3.10;;
26574;SDS011;67165;50.256;10.978;2023-05-17T07:51:08;10.50;;;3.00;;
26574;SDS011;67165;50.256;10.978;2023-05-17T07:53:33;7.07;;;3.13;;
26574;SDS011;67165;50.256;10.978;2023-05-17T07:55:59;7.00;;;3.05;;
26574;SDS011;67165;50.256;10.978;2023-05-17T07:58:25;6.88;;;2.83;;
26574;SDS011;67165;50.256;10.978;2023-05-17T08:00:50;7.57;;;2.97;;
26574;SDS011;67165;50.256;10.978;2023-05-17T08:03:16;6.95;;;2.78;;
26574;SDS011;67165;50.256;10.978;2023-05-17T08:05:42;6.50;;;2.75;;
26574;SDS011;67165;50.256;10.978;2023-05-17T08:08:07;7.78;;;3.25;;
26574;SDS011;67165;50.256;10.978;2023-05-17T08:10:33;7.57;;;2.85;;
26574;SDS011;67165;50.256;10.978;2023-05-17T08:13:00;9.20;;;3.22;;
26574;SDS011;67165;50.256;10.978;2023-05-17T08:15:26;9.60;;;3.25;;
26574;SDS011;67165;50.256;10.978;2023-05-17T08:17:51;8.65;;;2.97;;
26574;SDS011;67165;50.256;10.978;2023-05-17T08:20:17;5.85;;;2.90;;
26574;SDS011;67165;50.256;10.978;2023-05-17T08:22:42;8.25;;;3.33;;
26574;SDS011;67165;50.256;10.978;2023-05-17T08:25:08;11.02;;;4.43;;
26574;SDS011;67165;50.256;10.978;2023-05-17T08:27:34;7.97;;;3.50;;
26574;SDS011;67165;50.256;10.978;2023-05-17T08:30:00;8.88;;;3.42;;
26574;SDS011;67165;50.256;10.978;2023-05-17T08:32:26;9.18;;;3.75;;
26574;SDS011;67165;50.256;10.978;2023-05-17T08:34:52;8.63;;;3.47;;
26574;SDS011;67165;50.256;10.978;2023-05-17T08:37:18;8.07;;;2.90;;
26574;SDS011;67165;50.256;10.978;2023-05-17T08:39:44;6.40;;;3.03;;
26574;SDS011;67165;50.256;10.978;2023-05-17T08:42:09;7.05;;;3.28;;
26574;SDS011;67165;50.256;10.978;2023-05-17T08:44:38;7.35;;;3.17;;
26574;SDS011;67165;50.256;10.978;2023-05-17T08:47:03;5.57;;;2.92;;
26574;SDS011;67165;50.256;10.978;2023-05-17T08:49:31;8.68;;;3.58;;
26574;SDS011;67165;50.256;10.978;2023-05-17T08:51:59;8.27;;;3.03;;
26574;SDS011;67165;50.256;10.978;2023-05-17T08:54:26;8.57;;;2.80;;
26574;SDS011;67165;50.256;10.978;2023-05-17T08:56:57;9.65;;;3.30;;
26574;SDS011;67165;50.256;10.978;2023-05-17T08:59:27;7.70;;;3.03;;
26574;SDS011;67165;50.256;10.978;2023-05-17T09:01:57;5.40;;;2.87;;
26574;SDS011;67165;50.256;10.978;2023-05-17T09:04:24;6.97;;;3.17;;
26574;SDS011;67165;50.256;10.978;2023-05-17T09:06:51;8.43;;;3.58;;
26574;SDS011;67165;50.256;10.978;2023-05-17T09:09:17;6.45;;;2.83;;
26574;SDS011;67165;50.256;10.978;2023-05-17T09:11:43;7.15;;;2.88;;
26574;SDS011;67165;50.256;10.978;2023-05-17T09:14:09;7.97;;;2.97;;
26574;SDS011;67165;50.256;10.978;2023-05-17T09:16:35;12.18;;;3.08;;
26574;SDS011;67165;50.256;10.978;2023-05-17T09:19:02;9.43;;;3.20;;
26574;SDS011;67165;50.256;10.978;2023-05-17T09:21:29;6.72;;;3.22;;
26574;SDS011;67165;50.256;10.978;2023-05-17T09:23:55;8.18;;;3.10;;
26574;SDS011;67165;50.256;10.978;2023-05-17T09:26:27;7.90;;;3.08;;
26574;SDS011;67165;50.256;10.978;2023-05-17T09:29:08;10.48;;;3.45;;
26574;SDS011;67165;50.256;10.978;2023-05-17T09:31:39;4.03;;;2.85;;
26574;SDS011;67165;50.256;10.978;2023-05-17T09:34:06;7.43;;;3.30;;
26574;SDS011;67165;50.256;10.978;2023-05-17T09:36:33;10.38;;;3.60;;
26574;SDS011;67165;50.256;10.978;2023-05-17T09:39:01;6.53;;;3.53;;
26574;SDS011;67165;50.256;10.978;2023-05-17T09:41:40;7.95;;;3.20;;
26574;SDS011;67165;50.256;10.978;2023-05-17T09:44:14;7.35;;;3.10;;
26574;SDS011;67165;50.256;10.978;2023-05-17T09:46:40;7.55;;;3.50;;
26574;SDS011;67165;50.256;10.978;2023-05-17T09:49:09;7.65;;;3.35;;
26574;SDS011;67165;50.256;10.978;2023-05-17T09:51:35;7.82;;;3.50;;
26574;SDS011;67165;50.256;10.978;2023-05-17T09:54:05;14.15;;;4.45;;
26574;SDS011;67165;50.256;10.978;2023-05-17T09:56:31;9.25;;;3.95;;
26574;SDS011;67165;50.256;10.978;2023-05-17T09:59:02;9.18;;;3.10;;
26574;SDS011;67165;50.256;10.978;2023-05-17T10:01:29;7.82;;;3.50;;
26574;SDS011;67165;50.256;10.978;2023-05-17T10:04:01;7.85;;;3.25;;
26574;SDS011;67165;50.256;10.978;2023-05-17T10:06:28;7.05;;;3.13;;
26574;SDS011;67165;50.256;10.978;2023-05-17T10:08:55;8.52;;;3.03;;
26574;SDS011;67165;50.256;10.978;2023-05-17T10:11:26;6.35;;;3.03;;
26574;SDS011;67165;50.256;10.978;2023-05-17T10:14:11;9.15;;;3.10;;
26574;SDS011;67165;50.256;10.978;2023-05-17T10:16:42;7.50;;;2.53;;
26574;SDS011;67165;50.256;10.978;2023-05-17T10:19:09;7.10;;;2.78;;
26574;SDS011;67165;50.256;10.978;2023-05-17T10:21:36;7.18;;;2.85;;
26574;SDS011;67165;50.256;10.978;2023-05-17T10:24:03;9.73;;;2.70;;
26574;SDS011;67165;50.256;10.978;2023-05-17T10:26:30;8.60;;;3.38;;
26574;SDS011;67165;50.256;10.978;2023-05-17T10:28:57;6.80;;;2.90;;
26574;SDS011;67165;50.256;10.978;2023-05-17T10:31:30;6.90;;;2.92;;
26574;SDS011;67165;50.256;10.978;2023-05-17T10:34:01;6.95;;;2.92;;
26574;SDS011;67165;50.256;10.978;2023-05-17T10:36:28;5.22;;;2.70;;
26574;SDS011;67165;50.256;10.978;2023-05-17T10:38:54;5.45;;;2.63;;
26574;SDS011;67165;50.256;10.978;2023-05-17T10:41:21;9.82;;;3.00;;
26574;SDS011;67165;50.256;10.978;2023-05-17T10:43:49;9.10;;;3.08;;
26574;SDS011;67165;50.256;10.978;2023-05-17T10:46:17;5.72;;;2.72;;
26574;SDS011;67165;50.256;10.978;2023-05-17T10:48:49;10.93;;;3.08;;
26574;SDS011;67165;50.256;10.978;2023-05-17T10:51:19;6.63;;;2.80;;
26574;SDS011;67165;50.256;10.978;2023-05-17T10:54:07;6.85;;;2.60;;
26574;SDS011;67165;50.256;10.978;2023-05-17T10:56:54;6.43;;;2.50;;
26574;SDS011;67165;50.256;10.978;2023-05-17T10:59:26;4.80;;;2.65;;
26574;SDS011;67165;50.256;10.978;2023-05-17T11:02:06;6.35;;;2.75;;
26574;SDS011;67165;50.256;10.978;2023-05-17T11:04:36;8.77;;;3.20;;
26574;SDS011;67165;50.256;10.978;2023-05-17T11:12:26;6.40;;;2.88;;
26574;SDS011;67165;50.256;10.978;2023-05-17T11:15:00;6.93;;;2.72;;
26574;SDS011;67165;50.256;10.978;2023-05-17T11:17:49;6.63;;;2.50;;
26574;SDS011;67165;50.256;10.978;2023-05-17T11:22:58;6.53;;;2.95;;
26574;SDS011;67165;50.256;10.978;2023-05-17T11:25:38;10.68;;;3.00;;
26574;SDS011;67165;50.256;10.978;2023-05-17T11:30:51;6.03;;;2.50;;
26574;SDS011;67165;50.256;10.978;2023-05-17T11:33:46;4.03;;;2.47;;
26574;SDS011;67165;50.256;10.978;2023-05-17T11:36:16;7.50;;;2.83;;
26574;SDS011;67165;50.256;10.978;2023-05-17T11:38:48;7.43;;;2.53;;
26574;SDS011;67165;50.256;10.978;2023-05-17T11:41:15;6.20;;;2.80;;
26574;SDS011;67165;50.256;10.978;2023-05-17T11:43:46;7.82;;;2.90;;
26574;SDS011;67165;50.256;10.978;2023-05-17T11:46:20;6.53;;;2.95;;
26574;SDS011;67165;50.256;10.978;2023-05-17T11:48:50;7.55;;;2.80;;
26574;SDS011;67165;50.256;10.978;2023-05-17T11:51:17;8.60;;;2.90;;
26574;SDS011;67165;50.256;10.978;2023-05-17T11:53:44;7.22;;;3.00;;
26574;SDS011;67165;50.256;10.978;2023-05-17T11:56:11;5.88;;;3.00;;
26574;SDS011;67165;50.256;10.978;2023-05-17T11:58:37;7.93;;;2.88;;
26574;SDS011;67165;50.256;10.978;2023-05-17T12:01:03;7.93;;;2.90;;
26574;SDS011;67165;50.256;10.978;2023-05-17T12:03:30;6.38;;;2.78;;
26574;SDS011;67165;50.256;10.978;2023-05-17T12:08:33;7.40;;;2.97;;
26574;SDS011;67165;50.256;10.978;2023-05-17T12:11:00;9.02;;;2.95;;
26574;SDS011;67165;50.256;10.978;2023-05-17T12:13:30;6.43;;;2.70;;
26574;SDS011;67165;50.256;10.978;2023-05-17T12:16:02;8.88;;;3.20;;
26574;SDS011;67165;50.256;10.978;2023-05-17T12:18:38;7.03;;;2.92;;
26574;SDS011;67165;50.256;10.978;2023-05-17T12:21:07;6.13;;;2.72;;
26574;SDS011;67165;50.256;10.978;2023-05-17T12:23:35;9.20;;;3.38;;
26574;SDS011;67165;50.256;10.978;2023-05-17T12:26:07;7.88;;;2.90;;
26574;SDS011;67165;50.256;10.978;2023-05-17T12:28:41;7.50;;;2.67;;
26574;SDS011;67165;50.256;10.978;2023-05-17T12:31:18;5.57;;;2.47;;
26574;SDS011;67165;50.256;10.978;2023-05-17T12:33:46;7.40;;;2.88;;
26574;SDS011;67165;50.256;10.978;2023-05-17T12:36:14;10.20;;;2.90;;
26574;SDS011;67165;50.256;10.978;2023-05-17T12:38:41;5.55;;;2.33;;
26574;SDS011;67165;50.256;10.978;2023-05-17T12:41:09;7.07;;;3.00;;
26574;SDS011;67165;50.256;10.978;2023-05-17T12:43:36;8.35;;;3.00;;
26574;SDS011;67165;50.256;10.978;2023-05-17T12:46:13;8.90;;;2.97;;
26574;SDS011;67165;50.256;10.978;2023-05-17T12:48:43;8.73;;;2.50;;
26574;SDS011;67165;50.256;10.978;2023-05-17T12:51:10;12.20;;;3.42;;
26574;SDS011;67165;50.256;10.978;2023-05-17T12:53:44;8.27;;;2.83;;
26574;SDS011;67165;50.256;10.978;2023-05-17T12:56:18;6.40;;;2.60;;
26574;SDS011;67165;50.256;10.978;2023-05-17T12:59:10;9.57;;;3.15;;
26574;SDS011;67165;50.256;10.978;2023-05-17T13:01:35;6.00;;;2.50;;
26574;SDS011;67165;50.256;10.978;2023-05-17T13:04:02;7.63;;;2.78;;
26574;SDS011;67165;50.256;10.978;2023-05-17T13:06:28;7.43;;;2.60;;
26574;SDS011;67165;50.256;10.978;2023-05-17T13:09:06;9.55;;;2.58;;
26574;SDS011;67165;50.256;10.978;2023-05-17T13:11:32;8.02;;;2.60;;
26574;SDS011;67165;50.256;10.978;2023-05-17T13:14:04;7.13;;;3.00;;
26574;SDS011;67165;50.256;10.978;2023-05-17T13:16:30;6.90;;;2.85;;
26574;SDS011;67165;50.256;10.978;2023-05-17T13:18:56;6.85;;;2.88;;
26574;SDS011;67165;50.256;10.978;2023-05-17T13:21:22;10.80;;;3.15;;
26574;SDS011;67165;50.256;10.978;2023-05-17T13:23:48;5.82;;;2.53;;
26574;SDS011;67165;50.256;10.978;2023-05-17T13:26:15;7.03;;;2.70;;
26574;SDS011;67165;50.256;10.978;2023-05-17T13:28:41;10.75;;;3.03;;
26574;SDS011;67165;50.256;10.978;2023-05-17T13:31:07;7.70;;;2.92;;
26574;SDS011;67165;50.256;10.978;2023-05-17T13:33:33;7.93;;;2.80;;
26574;SDS011;67165;50.256;10.978;2023-05-17T13:35:59;11.70;;;3.38;;
26574;SDS011;67165;50.256;10.978;2023-05-17T13:38:24;9.13;;;3.00;;
26574;SDS011;67165;50.256;10.978;2023-05-17T13:40:50;9.07;;;2.90;;
26574;SDS011;67165;50.256;10.978;2023-05-17T13:43:16;8.25;;;2.90;;
26574;SDS011;67165;50.256;10.978;2023-05-17T13:45:42;9.82;;;2.78;;
26574;SDS011;67165;50.256;10.978;2023-05-17T13:48:07;7.28;;;2.40;;
26574;SDS011;67165;50.256;10.978;2023-05-17T13:50:33;8.05;;;2.67;;
26574;SDS011;67165;50.256;10.978;2023-05-17T13:52:59;7.47;;;2.63;;
26574;SDS011;67165;50.256;10.978;2023-05-17T13:55:26;8.40;;;2.63;;
26574;SDS011;67165;50.256;10.978;2023-05-17T13:57:52;6.70;;;2.40;;
26574;SDS011;67165;50.256;10.978;2023-05-17T14:00:18;8.88;;;2.42;;
26574;SDS011;67165;50.256;10.978;2023-05-17T14:02:44;7.47;;;2.83;;
26574;SDS011;67165;50.256;10.978;2023-05-17T14:05:10;9.68;;;2.72;;
26574;SDS011;67165;50.256;10.978;2023-05-17T14:07:36;7.32;;;2.80;;
26574;SDS011;67165;50.256;10.978;2023-05-17T14:10:07;8.38;;;2.63;;
26574;SDS011;67165;50.256;10.978;2023-05-17T14:12:34;6.60;;;2.67;;
26574;SDS011;67165;50.256;10.978;2023-05-17T14:15:00;7.85;;;2.80;;
26574;SDS011;67165;50.256;10.978;2023-05-17T14:17:25;6.65;;;2.53;;
26574;SDS011;67165;50.256;10.978;2023-05-17T14:19:51;10.18;;;2.95;;
26574;SDS011;67165;50.256;10.978;2023-05-17T14:22:16;8.52;;;2.85;;
26574;SDS011;67165;50.256;10.978;2023-05-17T14:24:42;9.07;;;2.65;;
26574;SDS011;67165;50.256;10.978;2023-05-17T14:27:08;6.28;;;2.30;;
26574;SDS011;67165;50.256;10.978;2023-05-17T14:29:34;6.63;;;2.70;;
26574;SDS011;67165;50.256;10.978;2023-05-17T14:31:59;5.78;;;2.40;;
26574;SDS011;67165;50.256;10.978;2023-05-17T14:34:25;7.90;;;2.55;;
26574;SDS011;67165;50.256;10.978;2023-05-17T14:36:51;12.68;;;3.08;;
26574;SDS011;67165;50.256;10.978;2023-05-17T14:39:17;10.07;;;2.47;;
26574;SDS011;67165;50.256;10.978;2023-05-17T14:41:42;6.30;;;2.38;;
26574;SDS011;67165;50.256;10.978;2023-05-17T14:44:08;7.70;;;2.50;;
26574;SDS011;67165;50.256;10.978;2023-05-17T14:46:34;10.77;;;2.50;;
26574;SDS011;67165;50.256;10.978;2023-05-17T14:49:00;6.30;;;2.60;;
26574;SDS011;67165;50.256;10.978;2023-05-17T14:51:25;7.50;;;2.47;;
26574;SDS011;67165;50.256;10.978;2023-05-17T14:53:51;5.90;;;2.38;;
26574;SDS011;67165;50.256;10.978;2023-05-17T14:56:18;9.20;;;2.13;;
26574;SDS011;67165;50.256;10.978;2023-05-17T14:58:44;10.18;;;2.33;;
26574;SDS011;67165;50.256;10.978;2023-05-17T15:01:09;9.40;;;2.30;;
26574;SDS011;67165;50.256;10.978;2023-05-17T15:03:35;8.45;;;2.40;;
26574;SDS011;67165;50.256;10.978;2023-05-17T15:06:03;8.05;;;2.72;;